Merced, CA

7:43 PM PDT on August 29, 2014 (GMT -0700)
Castle | Change Station
CLOSE
Current Station
Airport
Location: Atwater,
Elevation: 187 ft
Nearby Weather Stations

Elev 187 ft 37.38 °N, 120.57 °W | Updated 58 minutes ago

Scattered Clouds
Scattered Clouds
86 °F
Feels Like 84 °F
N
12
Wind Variable Wind from NW

Today
High -- | Low -- °F
--% Chance of Precip.
Yesterday
High -- | Low -- °F
Precip. -- in
6:30 AM 7:34 PM
Waxing Crescent, 18% visible
Pressure 29.81 in
Visibility 10.0 miles
Clouds Scattered Clouds 10000 ft
Heat Index 84 °F
Dew Point 55 °F
Humidity 35%
Rainfall 0.00 in
Snow Depth Not available.
UV 0 out of 12
Pollen 9.50 out of 12
Air Quality Not available.
Flu Activity Not available.
METAR KMER 300145Z 32010KT 10SM SCT100 30/13 A2981

More Conditions Fewer Conditions

Pressure 29.81 in
Visibility 10.0 miles
Clouds Scattered Clouds 10000 ft
Heat Index 84 °F
Dew Point 55 °F
Humidity 35%
Rainfall 0.00 in
Snow Depth Not available.
UV 0 out of 12
Pollen 9.50 out of 12
Air Quality Not available.
Flu Activity Not available.
METAR KMER 300145Z 32010KT 10SM SCT100 30/13 A2981

More Conditions Fewer Conditions

10-Day Weather Forecast

Almanac

Astronomy

Aug. 29, 2014 Rise Set
Actual Time 6:30 AM PDT 7:34 PM PDT
Civil Twilight 6:03 AM PDT 8:01 PM PDT
Nautical Twilight 5:31 AM PDT 8:33 PM PDT
Astronomical Twilight 4:58 AM PDT 9:06 PM PDT
Moon 10:18 AM PDT (8/29) 9:41 PM PDT (8/29)
Length of Visible Light 13h 58m
Length of Day
13h 04m
Tomorrow will be 2m 16s shorter.
Waxing Crescent, 18% of the Moon is Illuminated
Today
Waxing Crescent
Sep 2
First Quarter
Sep 8
Full
Sep 15
Last Quarter
Sep 24
New

Today's Extremes

State Highs State Lows

Community

WunderPhotos

Upload Photos

1,748,421 photos uploaded!

Nearby

Air Quality

  Air Quality AQ Index Pollutant
Friday Moderate
OZONE
Saturday Good
OZONE
Sunday Good
OZONE
Monday Good
OZONE
Tuesday Good
OZONE
Wednesday Good
OZONE

Snow Depth

Station Depth Elevation
Leavitt Meadows 0 in 7200 ft
Summit Meadow 0 in 9122 ft
Monitor Pass 0 in 8350 ft
Hagan's Meadow 0 in 8000 ft
CSS Lab 1 in 6900 ft

Earthquake Activity

City Distance Mag. Time & Date
Ridgemark, California 63 miles 3.5 4:32 PM PDT
2014-08-29
Ridgemark, California 63 miles 3.0 2:44 PM PDT
2014-08-29
Orange Cove, California 82 miles 2.5 7:48 AM PDT
2014-08-29
Napa, California 121 miles 2.6 11:57 AM PDT
2014-08-27
Minimum magnitude displayed is 2.5.

Coastal Water Temperatures

Place Temperature
No Stations Reporting

Nearby Weather Stations